createdAt,value
2023-05-10T00:00:32.243Z,87.28
2023-05-10T00:02:58.960Z,89.68
2023-05-10T00:05:25.652Z,87.78
2023-05-10T00:07:52.303Z,87.72
2023-05-10T00:10:19.171Z,87.82
2023-05-10T00:12:45.901Z,88.00
2023-05-10T00:15:12.618Z,88.07
2023-05-10T00:17:40.096Z,87.93
2023-05-10T00:20:07.469Z,87.88
2023-05-10T00:22:34.188Z,87.88
2023-05-10T00:25:00.905Z,88.32
2023-05-10T00:27:27.519Z,88.43
2023-05-10T00:29:54.200Z,88.55
2023-05-10T00:32:22.023Z,88.05
2023-05-10T00:34:48.730Z,88.13
2023-05-10T00:37:15.394Z,88.35
2023-05-10T00:39:42.042Z,88.50
2023-05-10T00:42:08.689Z,88.22
2023-05-10T00:44:35.384Z,88.07
2023-05-10T00:47:02.095Z,89.95
2023-05-10T00:49:29.711Z,87.88
2023-05-10T00:51:56.721Z,87.97
2023-05-10T00:54:23.390Z,88.18
2023-05-10T00:56:50.334Z,87.60
2023-05-10T00:59:18.067Z,87.72
2023-05-10T01:01:47.982Z,87.63
2023-05-10T01:04:15.635Z,89.93
2023-05-10T01:06:43.253Z,87.93
2023-05-10T01:09:10.663Z,88.18
2023-05-10T01:11:39.604Z,88.13
2023-05-10T01:14:06.982Z,87.88
2023-05-10T01:16:39.162Z,87.72
2023-05-10T01:19:19.724Z,87.80
2023-05-10T01:22:25.468Z,87.63
2023-05-10T01:25:19.320Z,88.72
2023-05-10T01:27:56.561Z,87.78
2023-05-10T01:31:07.741Z,87.28
2023-05-10T01:33:49.508Z,88.32
2023-05-10T01:36:35.981Z,88.28
2023-05-10T01:39:15.287Z,87.55
2023-05-10T01:41:53.933Z,87.47
2023-05-10T01:44:40.221Z,88.25
2023-05-10T01:47:17.708Z,87.90
2023-05-10T01:49:51.612Z,87.60
2023-05-10T01:52:21.873Z,87.63
2023-05-10T01:55:01.221Z,88.00
2023-05-10T01:57:32.824Z,87.28
2023-05-10T02:00:00.490Z,87.60
2023-05-10T02:02:29.290Z,91.18
2023-05-10T02:04:57.991Z,88.75
2023-05-10T02:07:25.594Z,87.68
2023-05-10T02:09:52.701Z,88.00
2023-05-10T02:12:20.649Z,89.03
2023-05-10T02:14:49.051Z,88.50
2023-05-10T02:17:16.407Z,88.18
2023-05-10T02:19:46.281Z,88.13
2023-05-10T02:22:13.765Z,87.57
2023-05-10T02:24:41.108Z,88.18
2023-05-10T02:27:09.506Z,87.95
2023-05-10T02:29:37.821Z,88.75
2023-05-10T02:32:05.205Z,88.88
2023-05-10T02:34:33.235Z,87.88
2023-05-10T02:37:01.603Z,87.80
2023-05-10T02:39:30.494Z,90.80
2023-05-10T02:41:58.413Z,91.80
2023-05-10T02:44:29.211Z,88.32
2023-05-10T02:46:56.950Z,87.93
2023-05-10T02:49:23.772Z,87.78
2023-05-10T02:51:56.125Z,87.88
2023-05-10T02:54:28.364Z,87.68
2023-05-10T02:57:02.705Z,88.15
2023-05-10T02:59:29.404Z,89.78
2023-05-10T03:01:56.204Z,88.13
2023-05-10T03:04:23.130Z,88.60
2023-05-10T03:06:49.916Z,88.72
2023-05-10T03:09:16.674Z,89.68
2023-05-10T03:11:57.683Z,89.90
2023-05-10T03:14:30.304Z,88.70
2023-05-10T03:17:12.392Z,91.68
2023-05-10T03:20:04.283Z,88.78
2023-05-10T03:22:39.246Z,88.13
2023-05-10T03:25:09.243Z,87.93
2023-05-10T03:27:37.729Z,88.13
2023-05-10T03:30:06.218Z,87.90
2023-05-10T03:32:35.344Z,88.43
2023-05-10T03:35:02.511Z,87.82
2023-05-10T03:37:29.132Z,88.15
2023-05-10T03:39:55.869Z,92.80
2023-05-10T03:42:22.540Z,88.68
2023-05-10T03:44:50.360Z,88.22
2023-05-10T03:47:16.993Z,88.40
2023-05-10T03:49:43.990Z,88.60
2023-05-10T03:52:10.570Z,88.65
2023-05-10T03:54:37.198Z,89.68
2023-05-10T03:57:03.934Z,89.15
2023-05-10T03:59:31.042Z,88.00
2023-05-10T04:01:57.682Z,89.88
2023-05-10T04:04:24.382Z,91.18
2023-05-10T04:06:51.048Z,89.88
2023-05-10T04:09:18.114Z,87.97
2023-05-10T04:11:44.776Z,88.38
2023-05-10T04:14:11.521Z,102.78
2023-05-10T04:16:38.180Z,87.78
2023-05-10T04:19:05.055Z,88.22
2023-05-10T04:21:31.789Z,89.30
2023-05-10T04:23:58.429Z,92.60
2023-05-10T04:26:26.456Z,89.68
2023-05-10T04:28:53.106Z,88.13
2023-05-10T04:31:19.868Z,89.10
2023-05-10T04:33:46.564Z,89.22
2023-05-10T04:36:13.186Z,89.85
2023-05-10T04:38:39.810Z,88.22
2023-05-10T04:41:11.332Z,88.22
2023-05-10T04:43:38.894Z,88.07
2023-05-10T04:46:06.879Z,88.55
2023-05-10T04:48:33.707Z,92.53
2023-05-10T04:51:00.626Z,88.20
2023-05-10T04:53:27.549Z,88.18
2023-05-10T04:55:54.241Z,87.70
2023-05-10T04:58:20.948Z,89.07
2023-05-10T05:00:47.614Z,89.35
2023-05-10T05:03:14.352Z,88.03
2023-05-10T05:05:41.013Z,87.97
2023-05-10T05:08:07.744Z,91.72
2023-05-10T05:10:34.360Z,99.20
2023-05-10T05:13:01.116Z,88.65
2023-05-10T05:15:28.337Z,88.20
2023-05-10T05:17:54.977Z,91.85
2023-05-10T05:20:22.158Z,89.22
2023-05-10T05:22:48.856Z,91.55
2023-05-10T05:25:16.152Z,91.43
2023-05-10T05:27:42.830Z,89.30
2023-05-10T05:30:09.962Z,93.20
2023-05-10T05:32:36.723Z,90.10
2023-05-10T05:35:03.553Z,90.50
2023-05-10T05:37:30.344Z,89.65
2023-05-10T05:39:57.038Z,90.38
2023-05-10T05:42:23.778Z,91.82
2023-05-10T05:44:50.555Z,94.80
2023-05-10T05:47:17.206Z,90.95
2023-05-10T05:49:46.574Z,90.25
2023-05-10T05:52:13.272Z,90.03
2023-05-10T05:54:39.991Z,90.30
2023-05-10T05:57:06.887Z,89.30
2023-05-10T05:59:33.525Z,93.40
2023-05-10T06:02:00.306Z,89.25
2023-05-10T06:04:27.073Z,89.72
2023-05-10T06:06:53.812Z,88.85
2023-05-10T06:09:20.474Z,91.00
2023-05-10T06:11:47.609Z,101.30
2023-05-10T06:14:14.250Z,90.97
2023-05-10T06:16:41.460Z,89.38
2023-05-10T06:19:08.273Z,92.20
2023-05-10T06:21:34.885Z,89.47
2023-05-10T06:24:01.505Z,94.72
2023-05-10T06:26:28.130Z,91.72
2023-05-10T06:28:54.739Z,90.53
2023-05-10T06:31:21.920Z,90.47
2023-05-10T06:33:48.596Z,90.97
2023-05-10T06:36:15.427Z,89.90
2023-05-10T06:38:42.075Z,90.50
2023-05-10T06:41:09.119Z,89.68
2023-05-10T06:43:35.946Z,88.95
2023-05-10T06:46:02.639Z,91.45
2023-05-10T06:48:29.445Z,91.25
2023-05-10T06:50:56.131Z,89.35
2023-05-10T06:53:22.886Z,92.85
2023-05-10T06:55:50.560Z,90.60
2023-05-10T06:58:17.453Z,91.03
2023-05-10T07:00:44.806Z,90.57
2023-05-10T07:03:12.002Z,90.45
2023-05-10T07:05:38.804Z,90.65
2023-05-10T07:08:05.551Z,90.15
2023-05-10T07:10:32.154Z,94.13
2023-05-10T07:12:58.857Z,92.20
2023-05-10T07:15:25.538Z,90.15
2023-05-10T07:17:53.050Z,93.82
2023-05-10T07:20:20.000Z,89.53
2023-05-10T07:22:46.602Z,92.47
2023-05-10T07:25:13.247Z,93.72
2023-05-10T07:27:39.905Z,89.82
2023-05-10T07:30:07.080Z,89.15
2023-05-10T07:32:33.918Z,91.65
2023-05-10T07:35:01.104Z,89.47
2023-05-10T07:37:27.797Z,89.90
2023-05-10T07:39:54.376Z,89.10
2023-05-10T07:42:21.013Z,90.60
2023-05-10T07:44:48.141Z,88.05
2023-05-10T07:47:14.755Z,88.30
2023-05-10T07:49:41.766Z,88.35
2023-05-10T07:52:08.378Z,88.32
2023-05-10T07:54:35.047Z,89.43
2023-05-10T07:57:01.812Z,90.25
2023-05-10T07:59:28.427Z,93.25
2023-05-10T08:01:55.075Z,87.75
2023-05-10T08:04:21.891Z,88.93
2023-05-10T08:06:48.543Z,88.60
2023-05-10T08:09:15.197Z,88.47
2023-05-10T08:11:41.891Z,89.10
2023-05-10T08:14:08.494Z,86.53
2023-05-10T08:16:35.428Z,87.95
2023-05-10T08:19:02.535Z,87.93
2023-05-10T08:21:29.359Z,89.22
2023-05-10T08:23:56.233Z,90.63
2023-05-10T08:26:22.892Z,91.25
2023-05-10T08:28:49.655Z,87.40
2023-05-10T08:31:16.623Z,87.70
2023-05-10T08:33:44.597Z,87.57
2023-05-10T08:36:12.049Z,93.00
2023-05-10T08:38:38.920Z,86.38
2023-05-10T08:41:06.886Z,87.53
2023-05-10T08:43:34.439Z,89.00
2023-05-10T08:46:06.494Z,86.50
2023-05-10T08:48:35.517Z,89.65
2023-05-10T08:51:04.554Z,87.70
2023-05-10T08:53:33.833Z,87.63
2023-05-10T08:56:02.203Z,94.63
2023-05-10T08:58:29.156Z,90.07
2023-05-10T09:00:56.549Z,91.30
2023-05-10T09:03:23.236Z,91.88
2023-05-10T09:05:50.391Z,90.05
2023-05-10T09:08:18.268Z,90.70
2023-05-10T09:10:47.982Z,88.78
2023-05-10T09:13:16.265Z,91.75
2023-05-10T09:15:45.972Z,91.18
2023-05-10T09:18:13.098Z,89.38
2023-05-10T09:20:39.817Z,89.53
2023-05-10T09:23:06.811Z,88.22
2023-05-10T09:25:36.583Z,87.30
2023-05-10T09:28:06.777Z,89.15
2023-05-10T09:30:33.420Z,94.22
2023-05-10T09:33:00.794Z,98.03
2023-05-10T09:35:30.272Z,92.40
2023-05-10T09:38:00.756Z,94.47
2023-05-10T09:40:30.352Z,88.55
2023-05-10T09:43:02.181Z,89.10
2023-05-10T09:45:31.338Z,92.25
2023-05-10T09:47:58.921Z,87.78
2023-05-10T09:50:26.154Z,86.82
2023-05-10T09:53:01.149Z,89.45
2023-05-10T09:55:39.388Z,86.82
2023-05-10T09:58:10.388Z,85.43
2023-05-10T10:00:42.339Z,85.93
2023-05-10T10:03:21.000Z,91.00
2023-05-10T10:05:48.834Z,85.90
2023-05-10T10:08:17.539Z,86.45
2023-05-10T10:10:46.915Z,85.65
2023-05-10T10:13:14.116Z,85.47
2023-05-10T10:15:40.907Z,85.85
2023-05-10T10:18:08.866Z,90.80
2023-05-10T10:20:38.510Z,86.07
2023-05-10T10:23:05.121Z,87.53
2023-05-10T10:25:31.960Z,85.82
2023-05-10T10:28:12.018Z,86.60
2023-05-10T10:30:47.888Z,86.95
2023-05-10T10:33:52.192Z,85.85
2023-05-10T10:36:19.796Z,85.93
2023-05-10T10:38:49.478Z,88.68
2023-05-10T10:41:31.186Z,86.03
2023-05-10T10:44:27.317Z,86.85
2023-05-10T10:47:14.868Z,85.70
2023-05-10T10:49:44.361Z,85.85
2023-05-10T10:52:23.972Z,87.60
2023-05-10T10:55:01.477Z,85.90
2023-05-10T10:57:31.119Z,85.93
2023-05-10T11:00:24.013Z,87.60
2023-05-10T11:02:55.347Z,87.25
2023-05-10T11:05:33.791Z,90.55
2023-05-10T11:08:01.527Z,87.97
2023-05-10T11:10:28.489Z,87.93
2023-05-10T11:13:02.607Z,86.20
2023-05-10T11:15:33.645Z,88.97
2023-05-10T11:18:00.759Z,86.18
2023-05-10T11:20:40.515Z,87.97
2023-05-10T11:23:16.814Z,87.70
2023-05-10T11:25:45.187Z,86.78
2023-05-10T11:28:15.364Z,85.32
2023-05-10T11:30:45.018Z,85.85
2023-05-10T11:33:17.043Z,85.25
2023-05-10T11:35:43.866Z,92.47
2023-05-10T11:38:14.946Z,85.22
2023-05-10T11:40:42.224Z,85.07
2023-05-10T11:43:11.042Z,85.13
2023-05-10T11:45:38.331Z,84.70
2023-05-10T11:48:05.274Z,85.72
2023-05-10T11:50:32.010Z,84.10
2023-05-10T11:52:59.714Z,84.90
2023-05-10T11:55:26.461Z,84.25
2023-05-10T11:57:53.985Z,83.15
2023-05-10T12:00:21.114Z,83.88
2023-05-10T12:02:49.071Z,85.00
2023-05-10T12:05:16.227Z,86.63
2023-05-10T12:07:42.884Z,83.28
2023-05-10T12:10:10.689Z,84.00
2023-05-10T12:12:45.071Z,83.68
2023-05-10T12:15:13.728Z,83.22
2023-05-10T12:17:43.950Z,83.60
2023-05-10T12:20:18.512Z,83.82
2023-05-10T12:22:47.987Z,85.20
2023-05-10T12:25:14.696Z,84.28
2023-05-10T12:27:42.206Z,83.30
2023-05-10T12:30:09.387Z,82.97
2023-05-10T12:32:40.401Z,83.88
2023-05-10T12:35:07.823Z,83.63
2023-05-10T12:37:39.428Z,88.82
2023-05-10T12:40:11.778Z,82.15
2023-05-10T12:42:39.848Z,84.40
2023-05-10T12:45:08.396Z,83.75
2023-05-10T12:47:35.368Z,82.88
2023-05-10T12:50:03.571Z,84.28
2023-05-10T12:52:30.886Z,83.28
2023-05-10T12:54:57.542Z,83.32
2023-05-10T12:57:24.451Z,85.13
2023-05-10T12:59:51.125Z,83.43
2023-05-10T13:02:21.971Z,82.72
2023-05-10T13:04:51.006Z,85.93
2023-05-10T13:07:17.890Z,83.93
2023-05-10T13:09:44.607Z,82.93
2023-05-10T13:12:11.280Z,82.53
2023-05-10T13:14:38.169Z,81.82
2023-05-10T13:17:04.979Z,82.22
2023-05-10T13:19:31.713Z,82.97
2023-05-10T13:21:58.934Z,92.95
2023-05-10T13:24:25.711Z,89.60
2023-05-10T13:26:52.491Z,85.90
2023-05-10T13:29:20.101Z,84.30
2023-05-10T13:31:46.976Z,84.63
2023-05-10T13:34:13.673Z,84.28
2023-05-10T13:36:40.424Z,88.05
2023-05-10T13:39:07.156Z,84.72
2023-05-10T13:41:34.159Z,87.60
2023-05-10T13:44:00.984Z,84.32
2023-05-10T13:46:27.661Z,85.60
2023-05-10T13:48:54.396Z,86.95
2023-05-10T13:51:21.059Z,86.50
2023-05-10T13:53:48.107Z,84.30
2023-05-10T13:56:15.173Z,83.28
2023-05-10T13:58:42.282Z,83.50
2023-05-10T14:01:08.980Z,86.95
2023-05-10T14:03:35.749Z,85.35
2023-05-10T14:06:02.482Z,83.60
2023-05-10T14:08:29.218Z,83.05
2023-05-10T14:10:57.346Z,84.15
2023-05-10T14:13:24.703Z,84.90
2023-05-10T14:15:51.845Z,83.68
2023-05-10T14:18:18.523Z,83.05
2023-05-10T14:20:45.422Z,83.38
2023-05-10T14:23:12.610Z,82.28
2023-05-10T14:25:42.720Z,85.68
2023-05-10T14:28:09.439Z,84.50
2023-05-10T14:30:36.267Z,83.25
2023-05-10T14:33:03.491Z,82.85
2023-05-10T14:35:32.034Z,83.97
2023-05-10T14:37:59.630Z,83.72
2023-05-10T14:40:26.958Z,84.72
2023-05-10T14:42:54.001Z,83.70
2023-05-10T14:45:21.929Z,85.88
2023-05-10T14:47:48.624Z,88.53
2023-05-10T14:50:24.993Z,83.07
2023-05-10T14:53:01.676Z,84.68
2023-05-10T14:55:28.419Z,84.63
2023-05-10T14:57:55.331Z,83.95
2023-05-10T15:00:22.532Z,85.40
2023-05-10T15:02:49.919Z,86.47
2023-05-10T15:05:17.431Z,85.80
2023-05-10T15:07:44.738Z,85.10
2023-05-10T15:10:12.334Z,85.55
2023-05-10T15:12:39.281Z,85.78
2023-05-10T15:15:07.108Z,84.95
2023-05-10T15:17:34.134Z,88.05
2023-05-10T15:20:02.914Z,86.18
2023-05-10T15:22:30.233Z,84.75
2023-05-10T15:24:57.709Z,85.32
2023-05-10T15:27:24.318Z,85.63
2023-05-10T15:29:51.152Z,85.43
2023-05-10T15:32:17.842Z,85.47
2023-05-10T15:34:44.473Z,90.50
2023-05-10T15:37:11.153Z,85.90
2023-05-10T15:39:37.913Z,87.50
2023-05-10T15:42:04.990Z,85.95
2023-05-10T15:44:31.738Z,87.13
2023-05-10T15:46:58.482Z,85.80
2023-05-10T15:49:25.199Z,86.50
2023-05-10T15:51:52.063Z,87.75
2023-05-10T15:54:18.876Z,84.32
2023-05-10T15:56:45.562Z,85.38
2023-05-10T15:59:12.235Z,88.65
2023-05-10T16:01:38.988Z,89.50
2023-05-10T16:04:05.825Z,87.85
2023-05-10T16:06:32.742Z,85.93
2023-05-10T16:08:59.497Z,85.60
2023-05-10T16:11:26.215Z,87.18
2023-05-10T16:13:53.023Z,86.60
2023-05-10T16:16:19.751Z,85.93
2023-05-10T16:18:46.539Z,86.13
2023-05-10T16:21:13.292Z,87.60
2023-05-10T16:23:40.191Z,86.75
2023-05-10T16:26:07.461Z,88.28
2023-05-10T16:28:34.220Z,87.32
2023-05-10T16:31:00.962Z,85.53
2023-05-10T16:33:27.627Z,90.07
2023-05-10T16:35:54.240Z,84.63
2023-05-10T16:38:21.804Z,84.80
2023-05-10T16:40:48.622Z,86.68
2023-05-10T16:43:15.237Z,85.75
2023-05-10T16:45:42.293Z,85.88
2023-05-10T16:48:09.189Z,85.50
2023-05-10T16:50:35.882Z,85.75
2023-05-10T16:53:02.990Z,86.13
2023-05-10T16:55:29.637Z,86.90
2023-05-10T16:57:59.723Z,86.75
2023-05-10T17:00:27.316Z,86.05
2023-05-10T17:02:54.822Z,84.93
2023-05-10T17:05:22.362Z,85.97
2023-05-10T17:07:49.398Z,85.60
2023-05-10T17:10:16.584Z,86.22
2023-05-10T17:12:43.481Z,85.75
2023-05-10T17:15:10.509Z,85.70
2023-05-10T17:17:37.521Z,86.78
2023-05-10T17:20:04.957Z,85.70
2023-05-10T17:22:31.626Z,86.50
2023-05-10T17:24:58.278Z,87.78
2023-05-10T17:27:25.019Z,87.63
2023-05-10T17:29:59.105Z,87.72
2023-05-10T17:32:26.103Z,90.70
2023-05-10T17:34:52.781Z,85.20
2023-05-10T17:37:19.377Z,85.95
2023-05-10T17:39:46.398Z,85.50
2023-05-10T17:42:14.728Z,85.85
2023-05-10T17:44:41.355Z,85.78
2023-05-10T17:47:07.983Z,86.72
2023-05-10T17:49:34.608Z,85.57
2023-05-10T17:52:01.268Z,87.30
2023-05-10T17:54:27.859Z,86.97
2023-05-10T17:56:54.550Z,85.93
2023-05-10T17:59:21.587Z,86.15
2023-05-10T18:01:48.273Z,85.90
2023-05-10T18:04:14.976Z,87.80
2023-05-10T18:06:41.707Z,86.32
2023-05-10T18:09:08.425Z,86.43
2023-05-10T18:11:36.146Z,85.63
2023-05-10T18:14:02.770Z,85.55
2023-05-10T18:16:29.402Z,87.03
2023-05-10T18:18:56.596Z,87.43
2023-05-10T18:21:23.392Z,89.22
2023-05-10T18:23:50.018Z,88.60
2023-05-10T18:26:18.118Z,86.20
2023-05-10T18:28:44.830Z,86.00
2023-05-10T18:31:12.477Z,87.05
2023-05-10T18:33:39.172Z,87.25
2023-05-10T18:36:05.878Z,88.85
2023-05-10T18:38:32.634Z,85.90
2023-05-10T18:40:59.285Z,86.55
2023-05-10T18:43:25.885Z,87.60
2023-05-10T18:45:52.779Z,86.95
2023-05-10T18:48:19.447Z,89.20
2023-05-10T18:50:46.058Z,93.22
2023-05-10T18:53:12.827Z,96.53
2023-05-10T18:55:39.804Z,90.65
2023-05-10T18:58:06.381Z,87.82
2023-05-10T19:00:33.046Z,93.63
2023-05-10T19:02:59.753Z,88.10
2023-05-10T19:05:30.016Z,88.88
2023-05-10T19:07:56.899Z,93.82
2023-05-10T19:10:23.599Z,90.07
2023-05-10T19:12:50.613Z,98.85
2023-05-10T19:15:19.200Z,88.57
2023-05-10T19:17:46.794Z,93.07
2023-05-10T19:20:15.223Z,96.20
2023-05-10T19:22:54.354Z,89.78
2023-05-10T19:25:31.999Z,91.05
2023-05-10T19:27:58.731Z,88.72
2023-05-10T19:30:26.252Z,87.85
2023-05-10T19:32:52.990Z,93.35
2023-05-10T19:35:19.874Z,89.53
2023-05-10T19:37:47.384Z,90.55
2023-05-10T19:40:15.906Z,88.75
2023-05-10T19:42:42.739Z,90.43
2023-05-10T19:45:10.042Z,93.50
2023-05-10T19:47:37.196Z,90.13
2023-05-10T19:50:04.536Z,96.28
2023-05-10T19:52:31.575Z,93.68
2023-05-10T19:54:58.179Z,88.63
2023-05-10T19:57:25.061Z,89.07
2023-05-10T19:59:51.742Z,89.68
2023-05-10T20:02:18.420Z,90.22
2023-05-10T20:04:45.112Z,99.05
2023-05-10T20:07:12.255Z,103.18
2023-05-10T20:09:38.865Z,92.35
2023-05-10T20:12:05.503Z,88.65
2023-05-10T20:14:32.188Z,93.68
2023-05-10T20:16:58.798Z,90.97
2023-05-10T20:19:28.128Z,88.43
2023-05-10T20:21:56.091Z,90.60
2023-05-10T20:24:22.826Z,90.10
2023-05-10T20:26:49.458Z,92.45
2023-05-10T20:29:16.321Z,92.10
2023-05-10T20:31:43.009Z,89.60
2023-05-10T20:34:09.799Z,92.35
2023-05-10T20:36:36.390Z,92.28
2023-05-10T20:39:03.285Z,89.88
2023-05-10T20:41:29.907Z,91.80
2023-05-10T20:43:56.539Z,90.10
2023-05-10T20:46:23.750Z,91.72
2023-05-10T20:48:50.392Z,88.95
2023-05-10T20:51:17.924Z,89.60
2023-05-10T20:53:44.748Z,90.35
2023-05-10T20:56:11.357Z,88.93
2023-05-10T20:58:37.949Z,88.28
2023-05-10T21:01:04.597Z,93.70
2023-05-10T21:03:31.226Z,89.03
2023-05-10T21:05:57.867Z,89.40
2023-05-10T21:08:24.507Z,90.18
2023-05-10T21:10:51.166Z,91.45
2023-05-10T21:13:17.790Z,91.70
2023-05-10T21:15:44.456Z,89.25
2023-05-10T21:18:11.153Z,89.03
2023-05-10T21:20:37.786Z,88.38
2023-05-10T21:23:04.486Z,91.13
2023-05-10T21:25:31.095Z,94.05
2023-05-10T21:27:57.750Z,92.25
2023-05-10T21:30:24.557Z,90.47
2023-05-10T21:32:51.265Z,90.07
2023-05-10T21:35:18.030Z,90.90
2023-05-10T21:37:44.639Z,91.57
2023-05-10T21:40:12.111Z,95.18
2023-05-10T21:42:38.852Z,91.82
2023-05-10T21:45:06.026Z,89.72
2023-05-10T21:47:32.644Z,90.03
2023-05-10T21:50:00.005Z,90.25
2023-05-10T21:52:27.044Z,93.07
2023-05-10T21:54:53.655Z,90.65
2023-05-10T21:57:21.479Z,88.97
2023-05-10T21:59:48.107Z,90.68
2023-05-10T22:02:14.778Z,90.15
2023-05-10T22:04:41.415Z,98.72
2023-05-10T22:07:08.032Z,95.88
2023-05-10T22:09:34.648Z,89.55
2023-05-10T22:12:01.258Z,95.93
2023-05-10T22:14:27.912Z,90.70
2023-05-10T22:16:54.654Z,89.85
2023-05-10T22:19:21.271Z,92.35
2023-05-10T22:21:47.882Z,89.57
2023-05-10T22:24:14.636Z,90.05
2023-05-10T22:26:41.353Z,93.07
2023-05-10T22:29:07.967Z,90.00
2023-05-10T22:31:34.802Z,93.15
2023-05-10T22:34:01.889Z,94.43
2023-05-10T22:36:29.058Z,92.75
2023-05-10T22:38:55.684Z,91.53
2023-05-10T22:41:22.845Z,92.53
2023-05-10T22:43:49.837Z,93.95
2023-05-10T22:46:16.616Z,92.40
2023-05-10T22:48:43.664Z,90.53
2023-05-10T22:51:10.430Z,92.47
2023-05-10T22:53:37.038Z,90.93
2023-05-10T22:56:03.740Z,89.22
2023-05-10T22:58:31.279Z,89.82
2023-05-10T23:00:58.350Z,90.65
2023-05-10T23:03:25.070Z,90.38
2023-05-10T23:05:51.844Z,93.55
2023-05-10T23:08:18.486Z,93.35
2023-05-10T23:10:45.123Z,90.22
2023-05-10T23:13:11.781Z,92.28
2023-05-10T23:15:40.042Z,92.60
2023-05-10T23:18:06.862Z,91.13
2023-05-10T23:20:33.523Z,90.25
2023-05-10T23:23:00.381Z,90.10
2023-05-10T23:25:27.056Z,90.60
2023-05-10T23:27:53.675Z,90.57
2023-05-10T23:30:20.323Z,90.43
2023-05-10T23:32:47.115Z,90.72
2023-05-10T23:35:13.743Z,92.10
2023-05-10T23:37:41.979Z,89.95
2023-05-10T23:40:09.265Z,92.75
2023-05-10T23:42:35.986Z,91.07
2023-05-10T23:45:02.943Z,91.50
2023-05-10T23:47:29.636Z,90.45
2023-05-10T23:49:56.316Z,90.78
2023-05-10T23:52:24.945Z,92.45
2023-05-10T23:54:52.080Z,90.55
2023-05-10T23:57:19.225Z,93.28
2023-05-10T23:59:46.456Z,92.30
